createdAt,value
2018-11-11T00:00:05.487Z,86.47
2018-11-11T00:02:34.108Z,82.73
2018-11-11T00:05:02.819Z,84.80
2018-11-11T00:07:31.456Z,86.93
2018-11-11T00:10:00.018Z,91.33
2018-11-11T00:12:28.584Z,84.23
2018-11-11T00:14:57.132Z,85.43
2018-11-11T00:17:25.793Z,82.03
2018-11-11T00:19:54.368Z,84.23
2018-11-11T00:22:22.929Z,81.50
2018-11-11T00:24:51.779Z,78.70
2018-11-11T00:27:20.343Z,75.70
2018-11-11T00:29:49.155Z,78.63
2018-11-11T00:32:17.765Z,75.47
2018-11-11T00:34:46.633Z,75.20
2018-11-11T00:37:15.246Z,72.03
2018-11-11T00:39:43.859Z,75.03
2018-11-11T00:42:12.388Z,73.33
2018-11-11T00:44:41.006Z,76.03
2018-11-11T00:47:09.564Z,74.30
2018-11-11T00:49:38.363Z,73.27
2018-11-11T00:52:07.447Z,74.27
2018-11-11T00:54:36.362Z,72.37
2018-11-11T00:57:04.958Z,75.33
2018-11-11T00:59:33.545Z,70.00
2018-11-11T01:02:02.125Z,70.43
2018-11-11T01:04:30.786Z,73.43
2018-11-11T01:06:59.296Z,73.93
2018-11-11T01:09:28.186Z,73.60
2018-11-11T01:11:56.846Z,73.50
2018-11-11T01:14:25.461Z,77.80
2018-11-11T01:16:54.083Z,77.07
2018-11-11T01:19:22.627Z,78.43
2018-11-11T01:21:51.185Z,77.47
2018-11-11T01:24:19.790Z,75.17
2018-11-11T01:26:48.359Z,78.50
2018-11-11T01:29:17.300Z,76.90
2018-11-11T01:31:45.877Z,76.27
2018-11-11T01:34:14.672Z,76.30
2018-11-11T01:36:43.439Z,79.17
2018-11-11T01:39:12.049Z,82.20
2018-11-11T01:41:40.651Z,77.93
2018-11-11T01:44:09.739Z,77.40
2018-11-11T01:46:38.304Z,81.93
2018-11-11T01:49:07.111Z,82.40
2018-11-11T01:51:35.684Z,79.87
2018-11-11T01:54:04.619Z,82.47
2018-11-11T01:56:33.168Z,79.10
2018-11-11T01:59:01.807Z,84.43
2018-11-11T02:01:30.338Z,84.47
2018-11-11T02:03:58.927Z,81.73
2018-11-11T02:06:27.488Z,85.60
2018-11-11T02:08:56.189Z,82.17
2018-11-11T02:11:24.744Z,84.07
2018-11-11T02:13:53.462Z,84.73
2018-11-11T02:16:22.102Z,86.53
2018-11-11T02:18:50.748Z,83.00
2018-11-11T02:21:19.477Z,84.30
2018-11-11T02:23:48.022Z,83.97
2018-11-11T02:26:16.575Z,80.70
2018-11-11T02:28:45.338Z,84.27
2018-11-11T02:31:13.859Z,80.90
2018-11-11T02:33:42.410Z,79.13
2018-11-11T02:36:11.014Z,80.07
2018-11-11T02:38:39.569Z,80.20
2018-11-11T02:41:08.397Z,77.67
2018-11-11T02:43:37.271Z,75.30
2018-11-11T02:46:05.937Z,75.73
2018-11-11T02:48:34.622Z,74.40
2018-11-11T02:51:03.147Z,74.07
2018-11-11T02:53:31.935Z,71.23
2018-11-11T02:56:00.576Z,70.93
2018-11-11T02:58:29.154Z,67.93
2018-11-11T03:00:57.720Z,70.37
2018-11-11T03:03:26.487Z,69.20
2018-11-11T03:05:55.050Z,67.23
2018-11-11T03:08:23.837Z,69.93
2018-11-11T03:10:52.375Z,64.43
2018-11-11T03:13:20.945Z,66.03
2018-11-11T03:15:49.503Z,66.63
2018-11-11T03:18:18.073Z,63.70
2018-11-11T03:20:46.631Z,66.30
2018-11-11T03:23:15.192Z,67.60
2018-11-11T03:25:43.751Z,65.40
2018-11-11T03:28:12.505Z,65.73
2018-11-11T03:30:41.047Z,64.63
2018-11-11T03:33:09.878Z,66.03
2018-11-11T03:35:38.466Z,62.37
2018-11-11T03:38:07.028Z,57.90
2018-11-11T03:40:35.554Z,54.53
2018-11-11T03:43:04.097Z,56.97
2018-11-11T03:45:32.657Z,58.33
2018-11-11T03:48:01.228Z,57.73
2018-11-11T03:50:29.793Z,59.40
2018-11-11T03:52:58.421Z,56.07
2018-11-11T03:55:26.976Z,56.60
2018-11-11T03:57:55.766Z,57.00
2018-11-11T04:00:24.320Z,56.13
2018-11-11T04:02:52.884Z,57.30
2018-11-11T04:05:21.423Z,54.93
2018-11-11T04:07:50.001Z,54.20
2018-11-11T04:10:19.487Z,54.63
2018-11-11T04:12:48.814Z,55.67
2018-11-11T04:15:18.679Z,54.93
2018-11-11T04:17:47.799Z,54.17
2018-11-11T04:20:17.674Z,51.70
2018-11-11T04:22:46.266Z,53.60
2018-11-11T04:25:15.656Z,51.77
2018-11-11T04:27:44.278Z,47.53
2018-11-11T04:30:13.841Z,48.13
2018-11-11T04:32:42.709Z,47.80
2018-11-11T04:35:11.410Z,46.13
2018-11-11T04:37:40.201Z,43.33
2018-11-11T04:40:10.229Z,44.47
2018-11-11T04:42:39.027Z,41.70
2018-11-11T04:45:10.503Z,40.50
2018-11-11T04:47:39.331Z,40.33
2018-11-11T04:50:09.606Z,37.83
2018-11-11T04:52:38.485Z,37.07
2018-11-11T04:55:07.387Z,37.23
2018-11-11T04:57:36.171Z,38.40
2018-11-11T05:00:05.753Z,37.10
2018-11-11T05:02:34.476Z,36.47
2018-11-11T05:05:02.989Z,36.03
2018-11-11T05:07:31.862Z,34.00
2018-11-11T05:10:00.404Z,34.30
2018-11-11T05:12:28.958Z,32.97
2018-11-11T05:14:57.470Z,34.50
2018-11-11T05:17:26.028Z,34.10
2018-11-11T05:19:54.552Z,32.70
2018-11-11T05:22:23.125Z,34.70
2018-11-11T05:24:51.681Z,34.87
2018-11-11T05:27:20.547Z,35.30
2018-11-11T05:29:49.071Z,35.27
2018-11-11T05:32:17.690Z,35.67
2018-11-11T05:34:46.216Z,33.67
2018-11-11T05:37:14.999Z,34.83
2018-11-11T05:39:43.498Z,36.10
2018-11-11T05:42:12.315Z,35.83
2018-11-11T05:44:40.814Z,34.43
2018-11-11T05:47:09.354Z,34.87
2018-11-11T05:49:37.864Z,35.80
2018-11-11T05:52:06.664Z,35.70
2018-11-11T05:54:35.203Z,37.50
2018-11-11T05:57:03.913Z,35.63
2018-11-11T05:59:32.454Z,36.33
2018-11-11T06:02:01.036Z,35.43
2018-11-11T06:04:29.552Z,35.00
2018-11-11T06:06:58.354Z,38.83
2018-11-11T06:09:26.887Z,35.73
2018-11-11T06:12:01.984Z,33.70
2018-11-11T06:14:30.538Z,36.27
2018-11-11T06:16:59.350Z,36.87
2018-11-11T06:19:27.870Z,35.27
2018-11-11T06:21:56.445Z,34.77
2018-11-11T06:24:24.970Z,34.73
2018-11-11T06:26:53.841Z,33.57
2018-11-11T06:29:22.360Z,33.80
2018-11-11T06:31:51.096Z,32.70
2018-11-11T06:34:19.613Z,33.70
2018-11-11T06:36:48.152Z,33.60
2018-11-11T06:39:16.725Z,34.63
2018-11-11T06:41:45.463Z,35.07
2018-11-11T06:44:14.148Z,33.97
2018-11-11T06:46:42.777Z,32.20
2018-11-11T06:49:11.420Z,32.50
2018-11-11T06:51:40.124Z,33.13
2018-11-11T06:54:08.953Z,32.13
2018-11-11T06:56:37.532Z,32.13
2018-11-11T06:59:06.162Z,31.90
2018-11-11T07:01:34.778Z,32.47
2018-11-11T07:04:03.771Z,31.67
2018-11-11T07:06:32.972Z,31.40
2018-11-11T07:09:01.535Z,31.13
2018-11-11T07:11:30.143Z,27.77
2018-11-11T07:13:58.770Z,26.40
2018-11-11T07:16:27.412Z,26.40
2018-11-11T07:18:55.939Z,24.00
2018-11-11T07:21:24.780Z,25.37
2018-11-11T07:23:53.415Z,23.23
2018-11-11T07:26:22.183Z,22.17
2018-11-11T07:28:50.901Z,23.07
2018-11-11T07:31:19.541Z,22.77
2018-11-11T07:33:48.195Z,21.87
2018-11-11T07:36:16.790Z,19.87
2018-11-11T07:38:45.380Z,20.00
2018-11-11T07:41:14.133Z,20.23
2018-11-11T07:43:42.778Z,22.63
2018-11-11T07:46:11.587Z,21.20
2018-11-11T07:48:40.594Z,20.83
2018-11-11T07:51:09.166Z,21.33
2018-11-11T07:53:37.710Z,21.80
2018-11-11T07:56:06.284Z,20.43
2018-11-11T07:58:34.904Z,20.17
2018-11-11T08:01:04.535Z,18.93
2018-11-11T08:03:33.068Z,20.10
2018-11-11T08:06:01.917Z,20.20
2018-11-11T08:08:30.447Z,20.57
2018-11-11T08:11:10.702Z,19.33
2018-11-11T08:13:39.334Z,18.77
2018-11-11T08:16:07.991Z,18.97
2018-11-11T08:18:36.593Z,17.53
2018-11-11T08:21:05.744Z,17.07
2018-11-11T08:23:34.420Z,18.00
2018-11-11T08:26:03.219Z,20.83
2018-11-11T08:28:31.832Z,20.10
2018-11-11T08:31:00.415Z,19.30
2018-11-11T08:33:28.994Z,15.93
2018-11-11T08:35:57.862Z,17.60
2018-11-11T08:38:26.556Z,17.23
2018-11-11T08:40:55.503Z,17.20
2018-11-11T08:43:24.284Z,16.73
2018-11-11T08:45:53.369Z,17.43
2018-11-11T08:48:22.076Z,17.10
2018-11-11T08:50:51.637Z,17.63
2018-11-11T08:53:20.208Z,15.93
2018-11-11T08:55:49.228Z,17.23
2018-11-11T08:58:17.897Z,14.93
2018-11-11T09:00:46.692Z,16.30
2018-11-11T09:03:15.331Z,16.27
2018-11-11T09:05:44.099Z,15.30
2018-11-11T09:08:12.769Z,15.47
2018-11-11T09:10:41.391Z,15.50
2018-11-11T09:13:10.255Z,15.83
2018-11-11T09:15:39.096Z,15.67
2018-11-11T09:18:08.022Z,15.67
2018-11-11T09:20:36.701Z,14.77
2018-11-11T09:23:05.678Z,15.23
2018-11-11T09:25:34.804Z,14.20
2018-11-11T09:28:03.710Z,14.77
2018-11-11T09:30:32.979Z,14.20
2018-11-11T09:33:01.775Z,14.70
2018-11-11T09:35:31.206Z,13.17
2018-11-11T09:38:00.278Z,13.97
2018-11-11T09:40:29.195Z,12.87
2018-11-11T09:42:57.863Z,13.77
2018-11-11T09:45:26.836Z,13.70
2018-11-11T09:47:55.781Z,14.33
2018-11-11T09:50:24.944Z,14.70
2018-11-11T09:52:54.002Z,14.77
2018-11-11T09:55:22.890Z,14.90
2018-11-11T09:57:51.904Z,14.40
2018-11-11T10:00:22.048Z,14.40
2018-11-11T10:02:56.108Z,15.50
2018-11-11T10:05:35.581Z,16.10
2018-11-11T10:08:10.543Z,15.20
2018-11-11T10:10:48.726Z,15.00
2018-11-11T10:13:22.787Z,18.00
2018-11-11T10:15:58.134Z,16.73
2018-11-11T10:18:32.865Z,17.10
2018-11-11T10:21:05.352Z,17.67
2018-11-11T10:23:45.243Z,17.63
2018-11-11T10:26:20.305Z,17.47
2018-11-11T10:28:56.074Z,17.13
2018-11-11T10:31:43.069Z,15.47
2018-11-11T10:35:18.600Z,16.90
2018-11-11T10:38:50.724Z,17.57
2018-11-11T10:41:23.733Z,19.03
2018-11-11T10:44:11.498Z,19.00
2018-11-11T10:46:43.729Z,21.87
2018-11-11T10:49:15.931Z,21.87
2018-11-11T10:51:44.681Z,23.00
2018-11-11T10:54:13.431Z,23.53
2018-11-11T10:56:42.246Z,24.07
2018-11-11T10:59:11.031Z,25.30
2018-11-11T11:01:45.097Z,26.37
2018-11-11T11:04:14.255Z,25.33
2018-11-11T11:06:48.396Z,27.47
2018-11-11T11:09:17.222Z,26.20
2018-11-11T11:11:45.943Z,25.50
2018-11-11T11:14:15.208Z,26.37
2018-11-11T11:16:43.972Z,22.63
2018-11-11T11:19:12.915Z,20.43
2018-11-11T11:21:41.706Z,21.17
2018-11-11T11:24:10.567Z,18.83
2018-11-11T11:26:39.137Z,17.60
2018-11-11T11:29:08.346Z,17.27
2018-11-11T11:31:37.027Z,15.70
2018-11-11T11:34:06.259Z,16.70
2018-11-11T11:36:34.929Z,17.20
2018-11-11T11:39:04.850Z,16.93
2018-11-11T11:41:33.800Z,18.80
2018-11-11T11:44:02.742Z,17.07
2018-11-11T11:46:31.404Z,17.43
2018-11-11T11:49:00.486Z,17.17
2018-11-11T11:51:30.487Z,17.10
2018-11-11T11:53:59.606Z,16.77
2018-11-11T11:56:28.296Z,19.27
2018-11-11T11:58:56.894Z,28.37
2018-11-11T12:01:25.469Z,29.53
2018-11-11T12:03:54.110Z,25.40
2018-11-11T12:06:23.001Z,24.43
2018-11-11T12:08:51.823Z,21.13
2018-11-11T12:11:20.474Z,22.63
2018-11-11T12:13:49.293Z,64.83
2018-11-11T12:16:17.907Z,74.30
2018-11-11T12:18:46.579Z,65.50
2018-11-11T12:21:15.263Z,63.07
2018-11-11T12:23:43.909Z,40.33
2018-11-11T12:26:12.652Z,47.97
2018-11-11T12:28:41.267Z,31.57
2018-11-11T12:31:09.853Z,33.90
2018-11-11T12:33:38.806Z,34.40
2018-11-11T12:36:07.399Z,20.83
2018-11-11T12:38:36.250Z,36.30
2018-11-11T12:41:05.284Z,31.30
2018-11-11T12:43:34.175Z,19.13
2018-11-11T12:46:02.745Z,24.60
2018-11-11T12:48:31.420Z,20.33
2018-11-11T12:51:00.125Z,23.13
2018-11-11T12:53:29.029Z,18.57
2018-11-11T12:55:57.706Z,21.93
2018-11-11T12:58:26.455Z,19.23
2018-11-11T13:00:55.101Z,19.17
2018-11-11T13:03:23.769Z,17.50
2018-11-11T13:05:52.554Z,16.67
2018-11-11T13:08:21.275Z,15.77
2018-11-11T13:10:50.042Z,15.13
2018-11-11T13:13:18.668Z,15.57
2018-11-11T13:15:47.392Z,15.03
2018-11-11T13:18:16.548Z,14.87
2018-11-11T13:20:45.154Z,14.43
2018-11-11T13:23:13.773Z,14.47
2018-11-11T13:25:42.505Z,15.07
2018-11-11T13:28:11.268Z,15.03
2018-11-11T13:30:39.883Z,13.50
2018-11-11T13:33:08.619Z,13.90
2018-11-11T13:35:37.260Z,13.10
2018-11-11T13:38:05.982Z,14.83
2018-11-11T13:40:34.644Z,13.60
2018-11-11T13:43:03.303Z,15.00
2018-11-11T13:45:31.919Z,15.00
2018-11-11T13:48:00.580Z,15.50
2018-11-11T13:50:29.226Z,15.43
2018-11-11T13:52:57.910Z,14.97
2018-11-11T13:55:26.475Z,15.83
2018-11-11T13:57:55.096Z,16.03
2018-11-11T14:00:25.002Z,16.07
2018-11-11T14:02:53.673Z,17.00
2018-11-11T14:05:22.353Z,17.00
2018-11-11T14:07:50.964Z,16.53
2018-11-11T14:10:19.584Z,17.37
2018-11-11T14:12:48.339Z,16.80
2018-11-11T14:15:23.007Z,18.23
2018-11-11T14:17:52.099Z,17.17
2018-11-11T14:20:21.864Z,19.37
2018-11-11T14:22:51.338Z,17.37
2018-11-11T14:25:22.666Z,18.73
2018-11-11T14:27:51.422Z,19.07
2018-11-11T14:30:25.315Z,18.73
2018-11-11T14:32:54.775Z,18.03
2018-11-11T14:35:23.375Z,19.93
2018-11-11T14:37:52.616Z,19.83
2018-11-11T14:40:22.798Z,21.37
2018-11-11T14:42:51.652Z,19.47
2018-11-11T14:45:20.756Z,20.60
2018-11-11T14:47:50.757Z,21.27
2018-11-11T14:50:20.050Z,19.70
2018-11-11T14:52:48.915Z,20.43
2018-11-11T14:55:21.911Z,19.37
2018-11-11T14:57:50.869Z,19.17
2018-11-11T15:00:21.725Z,19.83
2018-11-11T15:03:09.073Z,21.20
2018-11-11T15:05:37.631Z,20.87
2018-11-11T15:08:06.527Z,21.93
2018-11-11T15:10:35.041Z,20.60
2018-11-11T15:13:03.683Z,20.17
2018-11-11T15:15:32.261Z,19.83
2018-11-11T15:18:01.837Z,21.97
2018-11-11T15:20:30.610Z,21.37
2018-11-11T15:22:59.352Z,21.43
2018-11-11T15:25:29.018Z,22.57
2018-11-11T15:27:57.663Z,21.33
2018-11-11T15:30:28.578Z,22.23
2018-11-11T15:32:57.896Z,22.53
2018-11-11T15:35:26.494Z,24.23
2018-11-11T15:37:55.220Z,22.63
2018-11-11T15:40:28.075Z,24.03
2018-11-11T15:42:56.937Z,24.83
2018-11-11T15:45:27.695Z,26.27
2018-11-11T15:47:56.685Z,25.70
2018-11-11T15:50:26.630Z,26.73
2018-11-11T15:52:56.642Z,27.70
2018-11-11T15:55:26.445Z,27.60
2018-11-11T15:57:55.135Z,27.97
2018-11-11T16:00:27.098Z,30.87
2018-11-11T16:02:55.965Z,29.67
2018-11-11T16:05:24.552Z,32.80
2018-11-11T16:07:53.941Z,34.53
2018-11-11T16:10:24.807Z,34.20
2018-11-11T16:12:53.757Z,32.50
2018-11-11T16:15:38.949Z,31.73
2018-11-11T16:18:09.595Z,33.37
2018-11-11T16:20:38.397Z,33.63
2018-11-11T16:23:08.157Z,35.20
2018-11-11T16:25:36.947Z,36.23
2018-11-11T16:28:06.119Z,38.10
2018-11-11T16:30:36.005Z,41.97
2018-11-11T16:33:05.370Z,46.40
2018-11-11T16:35:34.111Z,45.97
2018-11-11T16:38:03.382Z,45.90
2018-11-11T16:40:33.977Z,47.77
2018-11-11T16:43:03.009Z,46.30
2018-11-11T16:45:32.894Z,45.30
2018-11-11T16:48:01.698Z,44.83
2018-11-11T16:50:31.718Z,45.10
2018-11-11T16:53:02.992Z,44.90
2018-11-11T16:55:32.663Z,44.60
2018-11-11T16:58:01.647Z,42.90
2018-11-11T17:00:31.789Z,40.73
2018-11-11T17:03:01.508Z,40.03
2018-11-11T17:05:31.655Z,38.77
2018-11-11T17:08:00.830Z,39.40
2018-11-11T17:10:31.336Z,39.50
2018-11-11T17:13:01.913Z,38.90
2018-11-11T17:15:31.760Z,39.60
2018-11-11T17:18:00.722Z,37.47
2018-11-11T17:20:29.654Z,38.03
2018-11-11T17:23:00.180Z,37.47
2018-11-11T17:25:29.015Z,38.07
2018-11-11T17:27:57.791Z,37.67
2018-11-11T17:30:27.865Z,37.27
2018-11-11T17:32:57.296Z,37.07
2018-11-11T17:35:25.964Z,38.23
2018-11-11T17:37:54.764Z,37.23
2018-11-11T17:40:26.808Z,37.73
2018-11-11T17:42:56.554Z,37.60
2018-11-11T17:45:25.329Z,37.50
2018-11-11T17:47:54.467Z,38.20
2018-11-11T17:50:25.458Z,38.27
2018-11-11T17:52:54.140Z,37.77
2018-11-11T17:55:24.765Z,37.90
2018-11-11T17:57:53.425Z,40.87
2018-11-11T18:00:23.252Z,43.17
2018-11-11T18:02:52.478Z,44.77
2018-11-11T18:05:22.210Z,46.53
2018-11-11T18:07:51.208Z,47.60
2018-11-11T18:10:20.957Z,49.23
2018-11-11T18:12:49.611Z,46.47
2018-11-11T18:15:20.841Z,46.80
2018-11-11T18:17:49.798Z,46.17
2018-11-11T18:20:21.683Z,49.77
2018-11-11T18:22:51.586Z,51.23
2018-11-11T18:25:20.439Z,46.67
2018-11-11T18:27:49.419Z,45.43
2018-11-11T18:30:21.974Z,43.07
2018-11-11T18:32:51.310Z,43.87
2018-11-11T18:35:20.570Z,42.80
2018-11-11T18:37:49.817Z,41.17
2018-11-11T18:40:19.926Z,42.67
2018-11-11T18:42:48.912Z,40.13
2018-11-11T18:45:19.942Z,40.63
2018-11-11T18:47:49.558Z,39.93
2018-11-11T18:50:20.267Z,41.00
2018-11-11T18:52:49.048Z,45.17
2018-11-11T18:55:17.771Z,44.83
2018-11-11T18:57:47.025Z,46.37
2018-11-11T19:00:17.856Z,48.23
2018-11-11T19:02:47.788Z,48.37
2018-11-11T19:05:17.397Z,48.00
2018-11-11T19:07:46.440Z,48.70
2018-11-11T19:10:16.902Z,49.30
2018-11-11T19:12:46.743Z,51.10
2018-11-11T19:15:16.552Z,48.67
2018-11-11T19:17:46.181Z,50.87
2018-11-11T19:20:16.129Z,50.30
2018-11-11T19:22:44.921Z,48.87
2018-11-11T19:25:19.631Z,48.43
2018-11-11T19:27:49.593Z,45.67
2018-11-11T19:30:19.555Z,47.63
2018-11-11T19:32:48.864Z,47.83
2018-11-11T19:35:17.783Z,48.57
2018-11-11T19:37:47.618Z,46.10
2018-11-11T19:40:17.750Z,44.97
2018-11-11T19:42:46.601Z,48.33
2018-11-11T19:45:16.628Z,48.63
2018-11-11T19:47:45.232Z,51.27
2018-11-11T19:50:15.419Z,48.77
2018-11-11T19:52:45.896Z,49.20
2018-11-11T19:55:15.330Z,47.90
2018-11-11T19:57:44.196Z,45.80
2018-11-11T20:00:16.932Z,49.77
2018-11-11T20:02:46.822Z,49.43
2018-11-11T20:05:16.026Z,46.17
2018-11-11T20:07:46.360Z,48.03
2018-11-11T20:10:16.454Z,48.83
2018-11-11T20:12:45.206Z,44.50
2018-11-11T20:15:15.321Z,49.70
2018-11-11T20:17:44.573Z,47.93
2018-11-11T20:20:16.610Z,45.87
2018-11-11T20:22:45.299Z,46.27
2018-11-11T20:25:15.056Z,45.57
2018-11-11T20:27:44.226Z,47.07
2018-11-11T20:30:18.006Z,45.80
2018-11-11T20:32:46.911Z,48.17
2018-11-11T20:35:16.874Z,47.00
2018-11-11T20:37:45.742Z,47.40
2018-11-11T20:40:16.747Z,46.33
2018-11-11T20:42:45.922Z,45.77
2018-11-11T20:45:15.712Z,44.37
2018-11-11T20:47:44.910Z,44.70
2018-11-11T20:50:15.831Z,44.80
2018-11-11T20:52:45.428Z,44.40
2018-11-11T20:55:14.664Z,42.50
2018-11-11T20:57:43.654Z,42.97
2018-11-11T21:00:15.373Z,44.07
2018-11-11T21:02:44.379Z,43.23
2018-11-11T21:05:15.305Z,41.73
2018-11-11T21:07:44.029Z,43.20
2018-11-11T21:10:14.181Z,44.40
2018-11-11T21:12:42.772Z,45.50
2018-11-11T21:15:13.525Z,46.37
2018-11-11T21:17:42.752Z,47.17
2018-11-11T21:20:12.919Z,48.90
2018-11-11T21:22:42.543Z,46.20
2018-11-11T21:25:11.231Z,46.50
2018-11-11T21:27:40.829Z,50.27
2018-11-11T21:30:12.959Z,50.87
2018-11-11T21:32:41.675Z,48.87
2018-11-11T21:35:11.027Z,54.10
2018-11-11T21:37:39.884Z,56.20
2018-11-11T21:40:10.430Z,54.07
2018-11-11T21:42:39.925Z,54.40
2018-11-11T21:45:10.130Z,56.70
2018-11-11T21:47:38.884Z,63.60
2018-11-11T21:50:09.312Z,63.10
2018-11-11T21:52:37.942Z,57.60
2018-11-11T21:55:07.237Z,61.13
2018-11-11T21:57:35.829Z,61.97
2018-11-11T22:00:04.880Z,56.17
2018-11-11T22:02:33.450Z,53.63
2018-11-11T22:05:01.987Z,59.63
2018-11-11T22:07:30.532Z,57.97
2018-11-11T22:09:59.199Z,61.13
2018-11-11T22:12:28.197Z,64.63
2018-11-11T22:14:57.002Z,67.60
2018-11-11T22:17:25.548Z,71.60
2018-11-11T22:19:54.109Z,72.10
2018-11-11T22:22:22.772Z,74.10
2018-11-11T22:24:51.405Z,79.07
2018-11-11T22:27:19.958Z,82.03
2018-11-11T22:29:48.760Z,80.37
2018-11-11T22:32:18.032Z,77.87
2018-11-11T22:34:46.827Z,80.90
2018-11-11T22:37:15.485Z,77.90
2018-11-11T22:39:44.181Z,80.27
2018-11-11T22:42:12.987Z,83.53
2018-11-11T22:44:41.594Z,81.80
2018-11-11T22:47:10.582Z,80.60
2018-11-11T22:49:39.129Z,79.30
2018-11-11T22:52:07.909Z,83.27
2018-11-11T22:54:36.414Z,81.27
2018-11-11T22:57:05.724Z,77.83
2018-11-11T22:59:34.347Z,82.43
2018-11-11T23:02:02.976Z,79.37
2018-11-11T23:04:31.544Z,81.37
2018-11-11T23:07:00.097Z,85.37
2018-11-11T23:09:28.701Z,82.80
2018-11-11T23:11:57.453Z,80.53
2018-11-11T23:14:26.281Z,80.57
2018-11-11T23:16:54.866Z,82.93
2018-11-11T23:19:23.492Z,82.40
2018-11-11T23:21:52.068Z,83.53
2018-11-11T23:24:20.717Z,83.47
2018-11-11T23:26:49.529Z,81.77
2018-11-11T23:29:18.090Z,80.97
2018-11-11T23:31:46.694Z,86.27
2018-11-11T23:34:15.229Z,82.40
2018-11-11T23:36:43.876Z,83.13
2018-11-11T23:39:12.478Z,82.20
2018-11-11T23:41:41.410Z,83.27
2018-11-11T23:44:10.202Z,84.47
2018-11-11T23:46:39.481Z,82.80
2018-11-11T23:49:08.850Z,85.43
2018-11-11T23:51:37.580Z,86.77
2018-11-11T23:54:06.600Z,83.70
2018-11-11T23:56:35.366Z,82.53
2018-11-11T23:59:03.890Z,84.63
